Time;durP1;ratioP1;P1;durP2;ratioP2;P2;SDS_P1;SDS_P2;PMS_P1;PMS_P2;Temp;Humidity;BMP_temperature;BMP_pressure;BME280_temperature;BME280_humidity;BME280_pressure;Samples;Min_cycle;Max_cycle;Signal;HPM_P1;HPM_P2
2023/06/26 00:01:33;;;;;;;5.00;4.07;;;;;;;;;;5056509;28;20052;-77
2023/06/26 00:04:00;;;;;;;4.95;3.90;;;;;;;;;;5074140;28;20033;-77
2023/06/26 00:06:26;;;;;;;4.47;4.07;;;;;;;;;;5056536;28;20428;-77
2023/06/26 00:08:55;;;;;;;4.68;3.67;;;;;;;;;;5056206;28;20024;-76
2023/06/26 00:11:21;;;;;;;4.05;3.65;;;;;;;;;;5074657;28;20032;-77
2023/06/26 00:13:46;;;;;;;3.95;3.35;;;;;;;;;;5056154;28;20078;-77
2023/06/26 00:16:12;;;;;;;5.07;4.57;;;;;;;;;;5074320;28;20475;-77
2023/06/26 00:18:37;;;;;;;4.82;4.00;;;;;;;;;;5074462;28;20028;-76
2023/06/26 00:21:02;;;;;;;5.50;3.97;;;;;;;;;;5039336;28;20029;-77
2023/06/26 00:23:28;;;;;;;5.00;3.88;;;;;;;;;;5073860;28;20041;-77
2023/06/26 00:25:53;;;;;;;4.03;3.63;;;;;;;;;;5056229;28;20043;-77
2023/06/26 00:28:19;;;;;;;4.20;3.80;;;;;;;;;;5073592;28;20036;-77
2023/06/26 00:30:44;;;;;;;3.50;3.20;;;;;;;;;;5073672;28;20036;-77
2023/06/26 00:33:09;;;;;;;4.35;3.90;;;;;;;;;;5073549;28;20090;-77
2023/06/26 00:35:35;;;;;;;3.95;3.40;;;;;;;;;;5055744;28;20036;-77
2023/06/26 00:38:01;;;;;;;4.00;3.60;;;;;;;;;;5055556;28;20039;-77
2023/06/26 00:40:27;;;;;;;3.90;3.55;;;;;;;;;;5073562;28;20079;-77
2023/06/26 00:42:53;;;;;;;4.28;3.60;;;;;;;;;;5055765;28;20120;-77
2023/06/26 00:45:18;;;;;;;5.20;4.13;;;;;;;;;;5038899;28;20052;-77
2023/06/26 00:47:44;;;;;;;6.57;3.95;;;;;;;;;;5073600;28;20036;-77
2023/06/26 00:50:09;;;;;;;5.45;3.72;;;;;;;;;;5055455;28;20072;-77
2023/06/26 00:52:35;;;;;;;4.97;3.95;;;;;;;;;;5038763;28;20102;-77
2023/06/26 00:55:00;;;;;;;6.03;4.35;;;;;;;;;;5055317;28;20036;-77
2023/06/26 00:57:26;;;;;;;4.68;3.90;;;;;;;;;;5055201;28;20079;-77
2023/06/26 00:59:52;;;;;;;4.85;4.10;;;;;;;;;;5055677;28;20036;-77
2023/06/26 01:02:20;;;;;;;4.30;3.80;;;;;;;;;;5090270;28;20452;-76
2023/06/26 01:04:49;;;;;;;4.13;3.72;;;;;;;;;;5093476;28;20470;-77
2023/06/26 01:07:15;;;;;;;4.88;3.90;;;;;;;;;;5075316;28;20106;-77
2023/06/26 01:09:41;;;;;;;4.57;3.78;;;;;;;;;;5093234;28;20035;-77
2023/06/26 01:12:07;;;;;;;6.30;4.20;;;;;;;;;;5093943;28;20032;-77
2023/06/26 01:14:35;;;;;;;4.45;3.92;;;;;;;;;;5093517;28;20213;-77
2023/06/26 01:17:01;;;;;;;4.40;3.70;;;;;;;;;;5075601;28;20507;-77
2023/06/26 01:19:29;;;;;;;5.55;4.25;;;;;;;;;;5075144;28;20036;-78
2023/06/26 01:22:15;;;;;;;4.63;3.90;;;;;;;;;;5075224;28;20032;-78
2023/06/26 01:24:47;;;;;;;4.20;3.80;;;;;;;;;;5075851;28;20031;-77
2023/06/26 01:27:13;;;;;;;5.60;3.60;;;;;;;;;;5075271;28;20048;-78
2023/06/26 01:29:40;;;;;;;4.65;4.22;;;;;;;;;;5093085;28;20036;-77
2023/06/26 01:32:05;;;;;;;4.22;3.78;;;;;;;;;;5075629;28;20106;-77
2023/06/26 01:34:31;;;;;;;3.72;3.42;;;;;;;;;;5058324;28;20036;-78
2023/06/26 01:36:56;;;;;;;4.90;3.72;;;;;;;;;;5058159;28;20032;-78
2023/06/26 01:39:22;;;;;;;4.82;3.92;;;;;;;;;;5092996;28;20093;-77
2023/06/26 01:41:47;;;;;;;4.38;3.72;;;;;;;;;;5074934;28;20028;-78
2023/06/26 01:44:41;;;;;;;4.35;3.83;;;;;;;;;;5092955;28;20441;-77
2023/06/26 01:47:06;;;;;;;;;;;;;;;;;;5090241;28;20036;-78
2023/06/26 01:49:44;;;;;;;3.60;3.30;;;;;;;;;;5093213;28;19916;-78
2023/06/26 01:52:24;;;;;;;4.10;3.63;;;;;;;;;;5093249;28;20275;-77
2023/06/26 01:55:04;;;;;;;4.05;3.65;;;;;;;;;;5092956;28;20056;-77
2023/06/26 01:57:30;;;;;;;3.95;3.55;;;;;;;;;;5074843;28;20032;-77
2023/06/26 01:59:56;;;;;;;3.75;3.45;;;;;;;;;;5074800;28;20028;-77
2023/06/26 02:02:24;;;;;;;3.78;3.47;;;;;;;;;;5057309;28;20499;-77
2023/06/26 02:04:49;;;;;;;5.13;3.90;;;;;;;;;;5072826;28;20033;-77
2023/06/26 02:07:14;;;;;;;3.88;3.47;;;;;;;;;;5055572;28;20468;-77
2023/06/26 02:09:40;;;;;;;4.15;3.75;;;;;;;;;;5076357;28;20032;-77
2023/06/26 02:12:06;;;;;;;3.72;3.30;;;;;;;;;;5058373;28;20067;-76
2023/06/26 02:14:31;;;;;;;5.50;3.67;;;;;;;;;;5076369;28;20450;-77
2023/06/26 02:16:56;;;;;;;3.50;3.17;;;;;;;;;;5076418;28;20467;-77
2023/06/26 02:19:22;;;;;;;3.63;3.33;;;;;;;;;;5076261;28;20028;-77
2023/06/26 02:21:50;;;;;;;3.60;3.30;;;;;;;;;;5076716;28;20028;-77
2023/06/26 02:24:16;;;;;;;3.50;3.20;;;;;;;;;;5076401;28;20024;-77
2023/06/26 02:26:41;;;;;;;3.83;3.42;;;;;;;;;;5076383;28;20031;-77
2023/06/26 02:29:06;;;;;;;3.80;3.28;;;;;;;;;;5076333;28;20024;-77
2023/06/26 02:31:32;;;;;;;3.75;3.17;;;;;;;;;;5058380;28;20033;-77
2023/06/26 02:33:57;;;;;;;5.35;3.60;;;;;;;;;;5076690;28;20024;-78
2023/06/26 02:36:23;;;;;;;3.42;3.13;;;;;;;;;;5058202;28;20445;-77
2023/06/26 02:38:48;;;;;;;6.00;3.17;;;;;;;;;;5076204;28;20036;-77
2023/06/26 02:41:14;;;;;;;3.60;2.90;;;;;;;;;;5058044;28;20021;-77
2023/06/26 02:43:39;;;;;;;3.65;2.78;;;;;;;;;;5057996;28;20052;-78
2023/06/26 02:46:04;;;;;;;3.75;3.03;;;;;;;;;;5075724;28;20020;-78
2023/06/26 02:48:30;;;;;;;4.82;3.03;;;;;;;;;;5057886;28;20036;-77
2023/06/26 02:50:55;;;;;;;4.68;3.20;;;;;;;;;;5075916;28;20111;-77
2023/06/26 02:53:20;;;;;;;5.15;2.85;;;;;;;;;;5057712;28;20477;-77
2023/06/26 02:55:47;;;;;;;3.78;2.83;;;;;;;;;;5057860;28;20082;-77
2023/06/26 02:58:13;;;;;;;4.05;3.38;;;;;;;;;;5041787;28;20032;-77
2023/06/26 03:00:41;;;;;;;3.40;2.65;;;;;;;;;;5060512;28;20387;-77
2023/06/26 03:03:07;;;;;;;3.20;2.60;;;;;;;;;;5077968;28;20120;-77
2023/06/26 03:05:32;;;;;;;4.50;2.88;;;;;;;;;;5096011;28;20482;-77
2023/06/26 03:07:57;;;;;;;4.50;2.88;;;;;;;;;;5095728;28;20034;-77
2023/06/26 03:10:23;;;;;;;2.67;2.47;;;;;;;;;;5077560;28;20454;-76
2023/06/26 03:12:48;;;;;;;3.58;2.80;;;;;;;;;;5077577;28;20058;-78
2023/06/26 03:15:14;;;;;;;3.28;2.22;;;;;;;;;;5077325;28;20077;-77
2023/06/26 03:17:39;;;;;;;3.60;2.33;;;;;;;;;;5077271;28;20032;-77
2023/06/26 03:20:06;;;;;;;3.65;2.80;;;;;;;;;;5094517;28;20032;-77
2023/06/26 03:22:32;;;;;;;4.40;2.50;;;;;;;;;;5077178;28;20170;-77
2023/06/26 03:24:58;;;;;;;3.72;2.75;;;;;;;;;;5077640;28;20476;-78
2023/06/26 03:27:23;;;;;;;3.97;2.50;;;;;;;;;;5077154;28;20074;-77
2023/06/26 03:29:49;;;;;;;3.85;2.58;;;;;;;;;;5095155;28;20502;-77
2023/06/26 03:32:14;;;;;;;3.45;2.50;;;;;;;;;;5095185;28;20052;-77
2023/06/26 03:34:39;;;;;;;4.78;2.65;;;;;;;;;;5095615;28;20035;-77
2023/06/26 03:37:05;;;;;;;3.67;2.40;;;;;;;;;;5060072;28;20604;-77
2023/06/26 03:39:30;;;;;;;5.05;2.65;;;;;;;;;;5095251;28;20028;-77
2023/06/26 03:42:00;;;;;;;3.70;2.38;;;;;;;;;;5076489;28;20478;-76
2023/06/26 03:44:25;;;;;;;4.30;2.58;;;;;;;;;;5077580;28;20032;-77
2023/06/26 03:46:51;;;;;;;4.25;2.53;;;;;;;;;;5094796;28;20031;-77
2023/06/26 03:49:17;;;;;;;3.20;2.47;;;;;;;;;;5076630;28;20077;-77
2023/06/26 03:51:42;;;;;;;5.60;2.67;;;;;;;;;;5076983;28;20078;-77
2023/06/26 03:54:08;;;;;;;3.67;2.63;;;;;;;;;;5094651;28;20024;-77
2023/06/26 03:56:33;;;;;;;4.07;2.65;;;;;;;;;;5076410;28;20539;-77
2023/06/26 03:58:58;;;;;;;4.25;2.55;;;;;;;;;;5076527;28;20107;-77
2023/06/26 04:01:24;;;;;;;4.18;2.53;;;;;;;;;;5050070;28;20423;-77
2023/06/26 04:03:49;;;;;;;4.88;2.25;;;;;;;;;;5074158;28;20031;-77
2023/06/26 04:06:14;;;;;;;4.20;2.83;;;;;;;;;;5074008;28;20040;-77
2023/06/26 04:08:40;;;;;;;4.93;2.38;;;;;;;;;;5073842;28;20078;-77
2023/06/26 04:11:06;;;;;;;5.53;2.45;;;;;;;;;;5039784;28;20024;-76
2023/06/26 04:13:31;;;;;;;3.15;2.10;;;;;;;;;;5056459;28;20066;-76
2023/06/26 04:15:57;;;;;;;4.40;2.50;;;;;;;;;;5055922;28;20043;-77
2023/06/26 04:18:22;;;;;;;4.20;2.55;;;;;;;;;;5055965;28;20032;-77
2023/06/26 04:21:11;;;;;;;4.22;2.35;;;;;;;;;;5074057;28;20029;-78
2023/06/26 04:23:37;;;;;;;4.25;2.72;;;;;;;;;;5055827;28;20091;-75
2023/06/26 04:26:04;;;;;;;4.90;2.90;;;;;;;;;;5055786;28;20024;-76
2023/06/26 04:28:30;;;;;;;6.28;3.33;;;;;;;;;;5039140;28;20365;-76
2023/06/26 04:30:56;;;;;;;7.97;2.80;;;;;;;;;;5055658;28;20039;-76
2023/06/26 04:33:21;;;;;;;5.90;2.92;;;;;;;;;;5073901;28;20035;-76
2023/06/26 04:35:48;;;;;;;5.03;3.05;;;;;;;;;;5038870;28;20440;-76
2023/06/26 04:38:15;;;;;;;6.95;3.50;;;;;;;;;;5055732;28;20479;-77
2023/06/26 04:40:40;;;;;;;7.63;3.80;;;;;;;;;;5055796;28;20035;-77
2023/06/26 04:43:06;;;;;;;10.95;3.83;;;;;;;;;;5055530;28;20017;-77
2023/06/26 04:45:31;;;;;;;11.18;4.10;;;;;;;;;;5074023;28;20352;-77
2023/06/26 04:47:56;;;;;;;5.75;3.58;;;;;;;;;;5074086;28;20033;-77
2023/06/26 04:50:22;;;;;;;6.88;2.92;;;;;;;;;;5073539;28;20040;-77
2023/06/26 04:52:48;;;;;;;5.90;2.90;;;;;;;;;;5055406;28;20463;-75
2023/06/26 04:55:13;;;;;;;7.05;3.40;;;;;;;;;;5073689;28;20025;-76
2023/06/26 04:57:39;;;;;;;5.03;2.92;;;;;;;;;;5056013;28;20391;-77
2023/06/26 05:00:10;;;;;;;7.22;3.13;;;;;;;;;;5055541;28;20085;-76
2023/06/26 05:02:36;;;;;;;5.07;3.00;;;;;;;;;;5024070;28;20093;-76
2023/06/26 05:05:01;;;;;;;8.88;2.95;;;;;;;;;;5074379;28;20028;-76
2023/06/26 05:07:26;;;;;;;5.95;2.70;;;;;;;;;;5073444;28;20393;-77
2023/06/26 05:09:52;;;;;;;4.55;2.75;;;;;;;;;;5055032;28;20483;-77
2023/06/26 05:12:17;;;;;;;5.25;2.80;;;;;;;;;;5055947;28;20030;-77
2023/06/26 05:14:43;;;;;;;3.92;2.67;;;;;;;;;;5055579;28;20063;-78
2023/06/26 05:17:08;;;;;;;6.20;2.60;;;;;;;;;;5055995;28;20033;-77
2023/06/26 05:19:34;;;;;;;4.97;2.50;;;;;;;;;;5055484;28;20056;-77
2023/06/26 05:22:03;;;;;;;6.60;2.70;;;;;;;;;;5055897;28;20033;-76
2023/06/26 05:24:30;;;;;;;6.63;2.60;;;;;;;;;;5056405;28;20020;-76
2023/06/26 05:26:56;;;;;;;6.50;2.80;;;;;;;;;;5055264;28;20120;-77
2023/06/26 05:29:21;;;;;;;5.78;2.50;;;;;;;;;;5038636;28;20487;-77
2023/06/26 05:31:48;;;;;;;7.70;2.88;;;;;;;;;;5055062;28;20115;-77
2023/06/26 05:34:13;;;;;;;6.80;3.30;;;;;;;;;;5073312;28;20028;-78
2023/06/26 05:36:39;;;;;;;5.63;2.90;;;;;;;;;;5021736;28;20025;-77
2023/06/26 05:39:04;;;;;;;5.82;2.55;;;;;;;;;;5038497;28;20097;-77
2023/06/26 05:41:30;;;;;;;6.72;2.60;;;;;;;;;;5022028;28;20114;-77
2023/06/26 05:43:55;;;;;;;7.28;3.03;;;;;;;;;;5059530;28;20475;-77
2023/06/26 05:46:21;;;;;;;5.93;2.95;;;;;;;;;;5077595;28;20028;-78
2023/06/26 05:48:47;;;;;;;5.22;2.55;;;;;;;;;;5078051;28;20029;-77
2023/06/26 05:51:13;;;;;;;3.60;2.40;;;;;;;;;;5043097;28;20375;-78
2023/06/26 05:53:38;;;;;;;3.28;2.22;;;;;;;;;;5077015;28;20029;-78
2023/06/26 05:56:04;;;;;;;6.63;2.83;;;;;;;;;;5076808;28;20444;-78
2023/06/26 05:58:30;;;;;;;4.97;2.28;;;;;;;;;;5042039;28;20040;-77
2023/06/26 06:00:55;;;;;;;4.18;2.53;;;;;;;;;;5058630;28;20078;-77
2023/06/26 06:03:21;;;;;;;5.28;2.50;;;;;;;;;;5059191;28;20309;-77
2023/06/26 06:05:46;;;;;;;6.15;2.63;;;;;;;;;;5059377;28;20094;-76
2023/06/26 06:08:12;;;;;;;5.18;2.63;;;;;;;;;;5076956;28;20078;-77
2023/06/26 06:10:37;;;;;;;3.92;2.53;;;;;;;;;;5076415;28;20107;-77
2023/06/26 06:13:03;;;;;;;4.32;2.40;;;;;;;;;;5076619;28;20111;-77
2023/06/26 06:15:28;;;;;;;3.67;2.22;;;;;;;;;;5041847;28;20403;-76
2023/06/26 06:17:56;;;;;;;3.72;2.25;;;;;;;;;;5076814;28;20025;-76
2023/06/26 06:20:22;;;;;;;5.70;2.50;;;;;;;;;;5058443;28;20028;-76
2023/06/26 06:22:48;;;;;;;5.53;2.30;;;;;;;;;;5059067;28;20096;-79
2023/06/26 06:25:19;;;;;;;4.25;2.42;;;;;;;;;;5078101;28;20033;-78
2023/06/26 06:27:44;;;;;;;3.40;2.38;;;;;;;;;;5043165;28;20024;-77
2023/06/26 06:30:11;;;;;;;4.82;2.72;;;;;;;;;;5041862;28;20028;-78
2023/06/26 06:32:36;;;;;;;5.15;2.35;;;;;;;;;;5041861;28;20116;-77
2023/06/26 06:35:09;;;;;;;3.60;2.25;;;;;;;;;;5041596;28;20148;-78
2023/06/26 06:37:35;;;;;;;3.50;2.33;;;;;;;;;;5027052;28;20402;-78
2023/06/26 06:40:00;;;;;;;3.25;2.30;;;;;;;;;;5058306;28;20032;-77
2023/06/26 06:42:25;;;;;;;4.03;2.15;;;;;;;;;;5075987;28;20085;-77
2023/06/26 06:44:51;;;;;;;3.88;2.20;;;;;;;;;;5076333;28;20124;-77
2023/06/26 06:47:16;;;;;;;2.65;1.95;;;;;;;;;;5076347;28;20035;-77
2023/06/26 06:49:41;;;;;;;3.17;2.03;;;;;;;;;;5057981;28;20548;-77
2023/06/26 06:52:07;;;;;;;2.83;2.13;;;;;;;;;;5057906;28;20034;-77
2023/06/26 06:54:51;;;;;;;3.45;2.30;;;;;;;;;;5075646;28;20036;-77
2023/06/26 06:57:16;;;;;;;2.50;1.98;;;;;;;;;;5057725;28;20024;-76
2023/06/26 06:59:42;;;;;;;3.65;2.13;;;;;;;;;;5057941;28;20074;-77
2023/06/26 07:02:07;;;;;;;3.08;2.00;;;;;;;;;;5091053;28;20081;-76
2023/06/26 07:04:32;;;;;;;4.93;1.98;;;;;;;;;;5061058;28;20028;-77
2023/06/26 07:06:58;;;;;;;2.40;2.00;;;;;;;;;;5078763;28;20028;-76
2023/06/26 07:09:23;;;;;;;9.82;1.85;;;;;;;;;;5077701;28;20032;-77
2023/06/26 07:11:48;;;;;;;5.05;2.17;;;;;;;;;;5078143;28;20516;-77
2023/06/26 07:14:14;;;;;;;6.30;2.38;;;;;;;;;;5077778;28;20032;-77
2023/06/26 07:16:39;;;;;;;5.63;2.53;;;;;;;;;;5043963;28;20053;-76
2023/06/26 07:19:05;;;;;;;4.90;2.47;;;;;;;;;;5095713;28;20471;-77
2023/06/26 07:21:30;;;;;;;5.95;2.55;;;;;;;;;;5095548;28;20032;-77
2023/06/26 07:23:55;;;;;;;11.75;2.90;;;;;;;;;;5077719;28;20036;-77
2023/06/26 07:26:21;;;;;;;6.90;2.95;;;;;;;;;;5077570;28;20379;-77
2023/06/26 07:28:48;;;;;;;4.95;2.42;;;;;;;;;;5060710;28;20436;-76
2023/06/26 07:31:14;;;;;;;5.65;2.55;;;;;;;;;;5095329;28;20478;-77
2023/06/26 07:33:40;;;;;;;6.93;2.28;;;;;;;;;;5043908;28;20115;-76
2023/06/26 07:36:05;;;;;;;6.28;2.55;;;;;;;;;;5095033;28;20474;-77
2023/06/26 07:38:31;;;;;;;5.70;2.38;;;;;;;;;;5077310;28;20420;-77
2023/06/26 07:40:56;;;;;;;5.45;2.60;;;;;;;;;;5077553;28;20035;-77
2023/06/26 07:43:23;;;;;;;4.47;2.05;;;;;;;;;;5077211;28;20051;-76
2023/06/26 07:45:48;;;;;;;5.50;2.65;;;;;;;;;;5095019;28;20047;-77
2023/06/26 07:48:14;;;;;;;5.95;2.47;;;;;;;;;;5095008;28;20501;-77
2023/06/26 07:50:39;;;;;;;4.22;2.25;;;;;;;;;;5060191;28;20082;-77
2023/06/26 07:53:05;;;;;;;3.30;2.20;;;;;;;;;;5076820;28;20031;-77
2023/06/26 07:55:31;;;;;;;3.65;2.08;;;;;;;;;;5076578;28;20115;-77
2023/06/26 07:57:56;;;;;;;4.80;2.78;;;;;;;;;;5060004;28;20560;-77
2023/06/26 08:00:22;;;;;;;3.28;2.08;;;;;;;;;;5076687;28;20035;-76
2023/06/26 08:02:47;;;;;;;4.07;2.00;;;;;;;;;;5094907;28;20080;-76
2023/06/26 08:05:13;;;;;;;4.25;2.40;;;;;;;;;;5094362;28;20055;-76
2023/06/26 08:07:39;;;;;;;4.70;2.13;;;;;;;;;;5076447;28;20024;-76
2023/06/26 08:10:05;;;;;;;3.28;1.83;;;;;;;;;;5076797;28;20067;-77
2023/06/26 08:12:30;;;;;;;4.78;2.10;;;;;;;;;;5059803;28;20490;-76
2023/06/26 08:14:56;;;;;;;4.05;2.20;;;;;;;;;;5076284;28;20058;-76
2023/06/26 08:17:21;;;;;;;3.03;1.80;;;;;;;;;;5094588;28;20028;-77
2023/06/26 08:19:46;;;;;;;2.75;2.08;;;;;;;;;;5076443;28;20058;-77
2023/06/26 08:22:12;;;;;;;3.10;1.70;;;;;;;;;;5076317;28;20483;-76
2023/06/26 08:24:38;;;;;;;2.08;1.77;;;;;;;;;;5076293;28;20054;-76
2023/06/26 08:27:03;;;;;;;3.10;1.85;;;;;;;;;;5076918;28;20031;-77
2023/06/26 08:29:29;;;;;;;2.88;1.70;;;;;;;;;;5094397;28;20433;-77
2023/06/26 08:31:54;;;;;;;4.95;1.90;;;;;;;;;;5094367;28;20531;-77
2023/06/26 08:34:20;;;;;;;2.60;1.75;;;;;;;;;;5076151;28;20119;-77
2023/06/26 08:36:45;;;;;;;1.63;1.48;;;;;;;;;;5094110;28;20036;-76
2023/06/26 08:39:10;;;;;;;3.13;1.73;;;;;;;;;;5076341;28;20089;-76
2023/06/26 08:41:36;;;;;;;2.83;1.98;;;;;;;;;;5094652;28;20050;-77
2023/06/26 08:44:03;;;;;;;2.47;1.65;;;;;;;;;;5076844;28;20059;-76
2023/06/26 08:46:28;;;;;;;5.75;1.65;;;;;;;;;;5076730;28;20031;-77
2023/06/26 08:49:01;;;;;;;3.63;1.90;;;;;;;;;;5059728;28;20028;-77
2023/06/26 08:51:28;;;;;;;2.53;1.65;;;;;;;;;;5075617;28;20398;-77
2023/06/26 08:54:01;;;;;;;3.35;1.63;;;;;;;;;;5075994;28;20050;-76
2023/06/26 08:56:37;;;;;;;3.00;1.77;;;;;;;;;;5075620;28;20031;-76
2023/06/26 08:59:03;;;;;;;2.72;1.70;;;;;;;;;;5058885;28;20108;-77
2023/06/26 09:01:29;;;;;;;3.08;1.52;;;;;;;;;;5093710;28;20520;-77
2023/06/26 09:03:54;;;;;;;2.92;1.90;;;;;;;;;;5075318;28;20057;-77
2023/06/26 09:06:20;;;;;;;3.53;1.63;;;;;;;;;;5075499;28;20028;-76
2023/06/26 09:08:46;;;;;;;2.28;1.50;;;;;;;;;;5093300;28;20090;-77
2023/06/26 09:11:11;;;;;;;2.22;1.60;;;;;;;;;;5058593;28;20039;-77
2023/06/26 09:13:37;;;;;;;2.10;1.55;;;;;;;;;;5093674;28;20035;-77
2023/06/26 09:16:08;;;;;;;2.60;1.65;;;;;;;;;;5058758;28;20036;-77
2023/06/26 09:18:34;;;;;;;2.13;1.35;;;;;;;;;;5041868;28;20059;-76
2023/06/26 09:20:59;;;;;;;2.17;1.50;;;;;;;;;;5075683;28;20360;-76
2023/06/26 09:23:25;;;;;;;2.75;1.30;;;;;;;;;;5075538;28;20040;-76
2023/06/26 09:25:51;;;;;;;2.88;1.45;;;;;;;;;;5058813;28;20111;-79
2023/06/26 09:28:17;;;;;;;3.05;1.70;;;;;;;;;;5058756;28;20028;-79
2023/06/26 09:30:45;;;;;;;1.98;1.35;;;;;;;;;;5093385;28;20032;-76
2023/06/26 09:33:15;;;;;;;1.98;1.38;;;;;;;;;;5075567;28;20395;-76
2023/06/26 09:35:41;;;;;;;2.30;1.30;;;;;;;;;;5075331;28;20385;-78
2023/06/26 09:38:07;;;;;;;2.78;1.17;;;;;;;;;;5075450;28;20115;-79
2023/06/26 09:40:34;;;;;;;2.03;1.30;;;;;;;;;;5093728;28;20131;-78
2023/06/26 09:43:04;;;;;;;2.15;1.20;;;;;;;;;;5093595;28;20070;-77
2023/06/26 09:45:34;;;;;;;3.88;1.40;;;;;;;;;;5058770;28;20099;-77
2023/06/26 09:48:02;;;;;;;3.20;1.35;;;;;;;;;;5076091;28;20036;-77
2023/06/26 09:50:28;;;;;;;1.73;1.20;;;;;;;;;;5060385;28;20563;-77
2023/06/26 09:52:55;;;;;;;2.55;1.40;;;;;;;;;;5042003;28;20115;-77
2023/06/26 09:55:23;;;;;;;1.23;1.10;;;;;;;;;;5075606;28;20032;-77
2023/06/26 09:57:52;;;;;;;1.40;1.20;;;;;;;;;;5058468;28;20024;-77
2023/06/26 10:00:17;;;;;;;2.47;1.40;;;;;;;;;;5074859;28;20027;-76
2023/06/26 10:02:44;;;;;;;1.77;1.25;;;;;;;;;;5074600;28;20162;-77
2023/06/26 10:05:09;;;;;;;2.85;1.20;;;;;;;;;;5092965;28;20028;-77
2023/06/26 10:07:35;;;;;;;2.25;1.30;;;;;;;;;;5074547;28;20051;-77
2023/06/26 10:10:02;;;;;;;1.80;1.10;;;;;;;;;;5057934;28;20059;-76
2023/06/26 10:12:29;;;;;;;4.60;1.25;;;;;;;;;;5075400;28;20031;-77
2023/06/26 10:14:57;;;;;;;2.28;1.27;;;;;;;;;;5058341;28;20028;-76
2023/06/26 10:17:25;;;;;;;3.00;1.30;;;;;;;;;;5092608;28;20075;-77
2023/06/26 10:19:56;;;;;;;3.47;1.33;;;;;;;;;;5074884;28;20042;-77
2023/06/26 10:22:23;;;;;;;1.05;0.95;;;;;;;;;;5075805;28;20030;-77
2023/06/26 10:24:50;;;;;;;3.13;1.15;;;;;;;;;;5074966;28;20382;-77
2023/06/26 10:27:20;;;;;;;2.13;1.25;;;;;;;;;;5093308;28;20032;-77
2023/06/26 10:29:48;;;;;;;1.70;1.20;;;;;;;;;;5062122;28;20123;-77
2023/06/26 10:32:14;;;;;;;2.28;1.00;;;;;;;;;;5078642;28;20064;-77
2023/06/26 10:34:39;;;;;;;1.20;1.05;;;;;;;;;;5061666;28;20052;-77
2023/06/26 10:37:05;;;;;;;3.30;1.20;;;;;;;;;;5061541;28;20562;-77
2023/06/26 10:39:51;;;;;;;1.95;1.08;;;;;;;;;;5078429;28;20032;-77
2023/06/26 10:42:18;;;;;;;2.33;1.05;;;;;;;;;;5078468;28;20470;-76
2023/06/26 10:44:45;;;;;;;1.75;1.05;;;;;;;;;;5061356;28;20123;-77
2023/06/26 10:47:11;;;;;;;1.63;1.20;;;;;;;;;;5060999;28;20364;-76
2023/06/26 10:49:39;;;;;;;1.70;1.20;;;;;;;;;;5096019;28;20482;-77
2023/06/26 10:52:05;;;;;;;1.17;1.08;;;;;;;;;;5095775;28;20054;-76
2023/06/26 10:54:32;;;;;;;1.42;1.27;;;;;;;;;;5077537;28;20107;-76
2023/06/26 10:56:57;;;;;;;3.78;1.13;;;;;;;;;;5061511;28;20032;-76
2023/06/26 10:59:28;;;;;;;1.92;1.02;;;;;;;;;;5061035;28;20441;-76
2023/06/26 11:01:58;;;;;;;2.30;1.17;;;;;;;;;;5095586;28;20410;-77
2023/06/26 11:04:40;;;;;;;1.27;1.00;;;;;;;;;;5095944;28;20028;-77
2023/06/26 11:07:22;;;;;;;2.65;1.10;;;;;;;;;;5095528;28;20035;-77
2023/06/26 11:09:54;;;;;;;3.13;1.08;;;;;;;;;;5095320;28;20024;-75
2023/06/26 11:12:41;;;;;;;2.00;1.00;;;;;;;;;;5060588;28;20032;-76
2023/06/26 11:15:17;;;;;;;2.00;1.10;;;;;;;;;;5077724;28;20486;-76
2023/06/26 11:17:43;;;;;;;1.85;1.00;;;;;;;;;;5060411;28;20082;-76
2023/06/26 11:20:13;;;;;;;1.55;0.95;;;;;;;;;;5095357;28;20485;-75
2023/06/26 11:22:40;;;;;;;8.18;1.30;;;;;;;;;;5077181;28;20020;-75
2023/06/26 11:25:07;;;;;;;1.60;1.05;;;;;;;;;;5060720;28;20415;-75
2023/06/26 11:27:37;;;;;;;3.83;1.50;;;;;;;;;;5077487;28;20407;-76
2023/06/26 11:30:03;;;;;;;4.28;1.80;;;;;;;;;;5095116;28;20028;-76
2023/06/26 11:32:28;;;;;;;8.32;2.00;;;;;;;;;;5060618;28;20036;-76
2023/06/26 11:34:54;;;;;;;10.35;2.25;;;;;;;;;;5076931;28;20035;-76
2023/06/26 11:37:21;;;;;;;3.25;1.80;;;;;;;;;;5076810;28;20024;-76
2023/06/26 11:39:46;;;;;;;6.05;2.45;;;;;;;;;;5093930;28;20474;-76
2023/06/26 11:42:11;;;;;;;3.70;1.90;;;;;;;;;;5076908;28;20044;-76
2023/06/26 11:44:42;;;;;;;6.00;2.20;;;;;;;;;;5094879;28;20020;-76
2023/06/26 11:47:07;;;;;;;4.35;1.70;;;;;;;;;;5094960;28;20032;-76
2023/06/26 11:49:33;;;;;;;5.45;1.60;;;;;;;;;;5076924;28;20039;-77
2023/06/26 11:51:58;;;;;;;3.50;1.80;;;;;;;;;;5043205;28;20043;-77
2023/06/26 11:54:27;;;;;;;3.67;1.50;;;;;;;;;;5094445;28;20024;-77
2023/06/26 11:56:57;;;;;;;3.08;1.70;;;;;;;;;;5059823;28;20035;-76
2023/06/26 11:59:23;;;;;;;3.95;1.40;;;;;;;;;;5094427;28;20042;-76
2023/06/26 12:01:50;;;;;;;4.50;1.77;;;;;;;;;;5063131;28;20045;-77
2023/06/26 12:04:17;;;;;;;2.95;1.50;;;;;;;;;;5039528;28;20020;-77
2023/06/26 12:06:47;;;;;;;1.63;1.50;;;;;;;;;;5039436;28;20032;-77
2023/06/26 12:09:13;;;;;;;2.95;1.60;;;;;;;;;;5056203;28;20040;-77
2023/06/26 12:11:44;;;;;;;3.75;1.92;;;;;;;;;;5055978;28;20036;-77
2023/06/26 12:14:10;;;;;;;3.13;1.13;;;;;;;;;;5039275;28;20028;-77
2023/06/26 12:16:36;;;;;;;2.25;1.20;;;;;;;;;;5055919;28;20074;-77
2023/06/26 12:19:06;;;;;;;3.17;1.30;;;;;;;;;;5039252;28;20032;-77
2023/06/26 12:21:37;;;;;;;3.22;1.30;;;;;;;;;;5039102;28;20064;-76
2023/06/26 12:24:04;;;;;;;4.93;1.50;;;;;;;;;;5073585;28;20050;-77
2023/06/26 12:26:30;;;;;;;2.78;1.25;;;;;;;;;;5055998;28;20345;-76
2023/06/26 12:29:04;;;;;;;1.73;1.30;;;;;;;;;;5056025;28;20031;-77
2023/06/26 12:31:29;;;;;;;1.17;0.77;;;;;;;;;;5055723;28;20024;-77
2023/06/26 12:33:55;;;;;;;1.17;0.90;;;;;;;;;;5039221;28;20029;-77
2023/06/26 12:36:20;;;;;;;1.55;1.00;;;;;;;;;;5073336;28;20036;-76
2023/06/26 12:38:46;;;;;;;2.90;1.05;;;;;;;;;;5055556;28;20077;-77
2023/06/26 12:41:14;;;;;;;2.78;1.00;;;;;;;;;;5038672;28;20024;-77
2023/06/26 12:43:39;;;;;;;1.85;1.05;;;;;;;;;;5038920;28;20039;-77
2023/06/26 12:46:05;;;;;;;1.02;0.90;;;;;;;;;;5022788;28;20024;-77
2023/06/26 12:48:46;;;;;;;3.33;0.93;;;;;;;;;;5055373;28;20058;-77
2023/06/26 12:51:12;;;;;;;1.63;1.05;;;;;;;;;;5056089;28;20029;-77
2023/06/26 12:53:39;;;;;;;1.58;1.08;;;;;;;;;;5073507;28;20025;-77
2023/06/26 12:56:06;;;;;;;1.23;0.85;;;;;;;;;;5073128;28;20036;-76
2023/06/26 12:58:31;;;;;;;1.67;0.90;;;;;;;;;;5022372;28;20032;-76
2023/06/26 13:00:57;;;;;;;2.28;0.90;;;;;;;;;;5055539;28;20521;-77
2023/06/26 13:03:23;;;;;;;3.78;0.90;;;;;;;;;;5073514;28;20036;-77
2023/06/26 13:05:48;;;;;;;1.77;0.98;;;;;;;;;;5055254;28;20040;-77
2023/06/26 13:08:17;;;;;;;1.67;0.80;;;;;;;;;;5038393;28;20039;-77
2023/06/26 13:10:42;;;;;;;1.00;0.80;;;;;;;;;;5038974;28;20028;-77
2023/06/26 13:13:08;;;;;;;0.80;0.80;;;;;;;;;;5038503;28;20372;-77
2023/06/26 13:15:33;;;;;;;1.80;1.00;;;;;;;;;;5055443;28;20081;-77
2023/06/26 13:17:59;;;;;;;1.33;1.00;;;;;;;;;;5022006;28;20070;-76
2023/06/26 13:20:24;;;;;;;1.20;0.88;;;;;;;;;;5073201;28;20112;-77
2023/06/26 13:22:50;;;;;;;0.88;0.80;;;;;;;;;;5054888;28;20380;-77
2023/06/26 13:25:15;;;;;;;1.05;0.75;;;;;;;;;;5038535;28;20199;-76
2023/06/26 13:27:41;;;;;;;1.17;0.88;;;;;;;;;;5055234;28;20103;-77
2023/06/26 13:30:07;;;;;;;2.13;0.90;;;;;;;;;;5055517;28;20427;-77
2023/06/26 13:32:32;;;;;;;1.25;0.68;;;;;;;;;;5022713;28;20024;-77
2023/06/26 13:34:58;;;;;;;0.73;0.73;;;;;;;;;;5073309;28;20438;-77
2023/06/26 13:37:23;;;;;;;3.20;1.10;;;;;;;;;;5073138;28;20068;-77
2023/06/26 13:39:50;;;;;;;1.15;0.85;;;;;;;;;;5038656;28;20060;-77
2023/06/26 13:42:18;;;;;;;1.33;0.90;;;;;;;;;;5056354;28;20483;-77
2023/06/26 13:44:44;;;;;;;1.90;0.90;;;;;;;;;;5056964;28;20060;-77
2023/06/26 13:47:12;;;;;;;3.58;1.02;;;;;;;;;;5038874;28;20395;-78
2023/06/26 13:49:38;;;;;;;0.60;0.60;;;;;;;;;;5056422;28;20052;-77
2023/06/26 13:52:05;;;;;;;1.92;1.10;;;;;;;;;;5056201;28;20029;-76
2023/06/26 13:54:30;;;;;;;1.88;0.70;;;;;;;;;;5058295;28;20413;-77
2023/06/26 13:56:57;;;;;;;1.55;1.00;;;;;;;;;;5057830;28;20484;-77
2023/06/26 13:59:24;;;;;;;0.95;0.85;;;;;;;;;;5055421;28;20127;-77
2023/06/26 14:01:50;;;;;;;1.75;1.13;;;;;;;;;;5054843;28;20053;-77
2023/06/26 14:04:15;;;;;;;7.55;1.83;;;;;;;;;;5076234;28;20027;-79
2023/06/26 14:06:41;;;;;;;4.30;1.27;;;;;;;;;;5076551;28;20439;-78
2023/06/26 14:09:08;;;;;;;3.95;1.10;;;;;;;;;;5076385;28;20471;-78
2023/06/26 14:11:35;;;;;;;4.78;1.00;;;;;;;;;;5059171;28;20040;-79
2023/06/26 14:14:00;;;;;;;3.58;1.00;;;;;;;;;;5059018;28;20074;-78
2023/06/26 14:16:25;;;;;;;5.22;1.38;;;;;;;;;;5076788;28;20025;-79
2023/06/26 14:18:51;;;;;;;9.40;0.90;;;;;;;;;;5041724;28;20546;-78
2023/06/26 14:21:16;;;;;;;2.35;1.00;;;;;;;;;;5042096;28;20047;-79
2023/06/26 14:23:42;;;;;;;5.43;1.10;;;;;;;;;;5076100;28;20391;-78
2023/06/26 14:26:07;;;;;;;3.42;1.00;;;;;;;;;;5041485;28;20533;-80
2023/06/26 14:28:33;;;;;;;1.83;0.77;;;;;;;;;;5058719;28;20425;-78
2023/06/26 14:30:58;;;;;;;2.25;0.93;;;;;;;;;;5058354;28;20040;-80
2023/06/26 14:33:23;;;;;;;5.85;1.30;;;;;;;;;;5076204;28;20496;-78
2023/06/26 14:35:49;;;;;;;7.80;1.30;;;;;;;;;;5075709;28;20024;-78
2023/06/26 14:38:14;;;;;;;4.45;1.10;;;;;;;;;;5076339;28;20028;-78
2023/06/26 14:40:40;;;;;;;5.35;1.05;;;;;;;;;;5058674;28;20020;-78